Time;durP1;ratioP1;P1;durP2;ratioP2;P2;SDS_P1;SDS_P2;PMS_P1;PMS_P2;Temp;Humidity;BMP_temperature;BMP_pressure;BME280_temperature;BME280_humidity;BME280_pressure;Samples;Min_cycle;Max_cycle;Signal;HPM_P1;HPM_P2
2024/03/31 00:01:04;;;;;;;43.00;38.37;;;12.60;99.90;;;;;;5015783;28;20772;-59
2024/03/31 00:03:30;;;;;;;45.80;39.30;;;12.30;99.90;;;;;;5015848;28;20230;-60
2024/03/31 00:05:56;;;;;;;43.60;37.93;;;12.30;99.90;;;;;;5016019;28;20548;-60
2024/03/31 00:08:22;;;;;;;45.17;36.70;;;12.20;99.90;;;;;;5016104;28;20461;-59
2024/03/31 00:10:48;;;;;;;38.00;34.10;;;12.20;99.90;;;;;;5014923;28;20405;-59
2024/03/31 00:13:14;;;;;;;36.53;32.30;;;12.10;99.90;;;;;;5015149;28;20496;-60
2024/03/31 00:15:40;;;;;;;36.10;32.30;;;12.20;99.90;;;;;;5014494;28;20190;-60
2024/03/31 00:18:05;;;;;;;32.80;29.50;;;12.20;99.90;;;;;;5014652;28;20262;-60
2024/03/31 00:20:31;;;;;;;32.20;28.67;;;12.10;99.90;;;;;;5016033;28;20196;-60
2024/03/31 00:22:57;;;;;;;34.10;28.50;;;12.10;99.90;;;;;;5016034;28;20233;-60
2024/03/31 00:25:23;;;;;;;30.87;27.70;;;12.10;99.90;;;;;;5015684;28;20174;-60
2024/03/31 00:27:48;;;;;;;32.83;29.43;;;12.10;99.90;;;;;;5015998;28;20221;-59
2024/03/31 00:30:14;;;;;;;33.03;29.60;;;12.20;99.90;;;;;;5014519;28;20182;-60
2024/03/31 00:32:40;;;;;;;33.13;29.53;;;12.20;99.90;;;;;;5015358;28;20180;-59
2024/03/31 00:35:05;;;;;;;31.10;27.93;;;12.30;99.90;;;;;;5014382;28;20245;-59
2024/03/31 00:37:31;;;;;;;30.00;26.97;;;12.30;99.90;;;;;;5015450;28;20209;-59
2024/03/31 00:39:57;;;;;;;30.43;27.20;;;12.30;99.90;;;;;;5015801;28;20166;-59
2024/03/31 00:42:23;;;;;;;28.60;25.80;;;12.30;99.90;;;;;;5013969;28;20172;-59
2024/03/31 00:44:48;;;;;;;29.83;26.77;;;12.30;99.90;;;;;;5015369;28;20698;-59
2024/03/31 00:47:14;;;;;;;30.93;25.93;;;12.30;99.90;;;;;;5014711;28;20595;-59
2024/03/31 00:49:40;;;;;;;30.03;27.03;;;12.10;99.90;;;;;;5015583;28;20182;-60
2024/03/31 00:52:06;;;;;;;31.17;27.87;;;12.10;99.90;;;;;;5015009;28;20626;-60
2024/03/31 00:54:31;;;;;;;30.53;27.60;;;12.00;99.90;;;;;;5014802;28;20614;-59
2024/03/31 00:56:57;;;;;;;31.73;28.33;;;12.10;99.90;;;;;;5015357;28;20565;-59
2024/03/31 00:59:23;;;;;;;33.50;30.00;;;12.10;99.90;;;;;;5014826;28;20182;-59
2024/03/31 01:01:49;;;;;;;32.03;28.90;;;12.20;99.90;;;;;;5013648;28;20503;-59
2024/03/31 01:04:14;;;;;;;32.97;29.53;;;12.20;99.90;;;;;;5013589;28;20217;-59
2024/03/31 01:06:40;;;;;;;31.93;28.47;;;12.20;99.90;;;;;;5013322;28;20186;-59
2024/03/31 01:09:07;;;;;;;34.17;30.67;;;12.20;99.90;;;;;;5013821;28;20233;-59
2024/03/31 01:11:33;;;;;;;32.47;28.27;;;12.20;99.90;;;;;;5015007;28;20183;-59
2024/03/31 01:14:01;;;;;;;32.20;28.50;;;12.10;99.90;;;;;;5014871;28;20417;-59
2024/03/31 01:16:27;;;;;;;33.20;29.70;;;12.10;99.90;;;;;;5014607;28;20418;-59
2024/03/31 01:18:52;;;;;;;33.80;30.40;;;12.10;99.90;;;;;;5014479;28;20460;-60
2024/03/31 01:21:19;;;;;;;31.93;28.67;;;12.10;99.90;;;;;;5013727;28;20180;-59
2024/03/31 01:23:44;;;;;;;32.30;29.00;;;12.10;99.90;;;;;;5015186;28;20426;-59
2024/03/31 01:26:10;;;;;;;32.87;29.47;;;12.00;99.90;;;;;;5013579;28;20419;-59
2024/03/31 01:28:36;;;;;;;33.87;30.23;;;12.00;99.90;;;;;;5013851;28;20232;-59
2024/03/31 01:31:02;;;;;;;35.53;32.07;;;11.90;99.90;;;;;;5014239;28;20511;-60
2024/03/31 01:33:28;;;;;;;38.40;32.80;;;11.90;99.90;;;;;;5014561;28;20412;-59
2024/03/31 01:36:01;;;;;;;36.03;32.20;;;11.90;99.90;;;;;;5012602;28;20187;-60
2024/03/31 01:38:27;;;;;;;36.13;32.43;;;11.90;99.90;;;;;;5014182;28;20403;-60
2024/03/31 01:40:53;;;;;;;35.20;31.60;;;11.90;99.90;;;;;;5013986;28;20422;-60
2024/03/31 01:43:19;;;;;;;39.07;34.90;;;11.80;99.90;;;;;;5013628;28;20691;-59
2024/03/31 01:45:46;;;;;;;36.13;32.37;;;11.60;99.90;;;;;;5012848;28;20941;-59
2024/03/31 01:48:11;;;;;;;34.93;31.20;;;11.40;99.90;;;;;;5013200;28;20529;-60
2024/03/31 01:50:37;;;;;;;37.03;30.10;;;11.40;99.90;;;;;;5011210;28;20956;-59
2024/03/31 01:53:03;;;;;;;38.17;30.37;;;11.60;99.90;;;;;;5033872;28;20169;-59
2024/03/31 01:55:29;;;;;;;32.10;28.73;;;11.60;99.90;;;;;;5016059;28;20571;-60
2024/03/31 01:57:55;;;;;;;35.17;31.37;;;11.60;99.90;;;;;;5013765;28;20467;-60
2024/03/31 02:00:20;;;;;;;32.90;29.30;;;11.70;99.90;;;;;;5013548;28;20181;-60
2024/03/31 02:02:47;;;;;;;34.70;29.47;;;11.70;99.90;;;;;;5013278;28;20223;-60
2024/03/31 02:05:13;;;;;;;32.80;29.37;;;11.70;99.90;;;;;;5010811;28;20195;-59
2024/03/31 02:07:39;;;;;;;34.60;30.90;;;11.70;99.90;;;;;;5012896;28;20457;-59
2024/03/31 02:10:05;;;;;;;33.27;29.67;;;11.70;99.90;;;;;;5012822;28;20423;-59
2024/03/31 02:12:33;;;;;;;33.77;29.97;;;11.70;99.90;;;;;;5013407;28;20178;-59
2024/03/31 02:14:59;;;;;;;33.77;30.17;;;11.70;99.90;;;;;;5014092;28;20437;-59
2024/03/31 02:17:24;;;;;;;32.47;28.97;;;11.70;99.90;;;;;;5011848;28;20845;-59
2024/03/31 02:19:50;;;;;;;31.73;28.53;;;11.70;99.90;;;;;;5013264;28;20427;-60
2024/03/31 02:22:17;;;;;;;34.43;30.83;;;11.80;99.90;;;;;;5013298;28;20311;-60
2024/03/31 02:24:43;;;;;;;32.00;28.70;;;11.80;99.90;;;;;;5013388;28;20183;-60
2024/03/31 02:27:09;;;;;;;32.60;29.10;;;11.80;99.90;;;;;;5011622;28;20434;-60
2024/03/31 02:29:35;;;;;;;31.93;28.43;;;11.80;99.90;;;;;;5013292;28;20430;-59
2024/03/31 02:32:01;;;;;;;34.37;29.73;;;11.70;99.90;;;;;;5013186;28;20260;-60
2024/03/31 02:34:27;;;;;;;32.27;28.87;;;11.70;99.90;;;;;;5012686;28;20844;-60
2024/03/31 02:36:52;;;;;;;32.17;28.93;;;11.70;99.90;;;;;;5013221;28;20201;-59
2024/03/31 02:39:18;;;;;;;29.97;27.13;;;11.70;99.90;;;;;;5012574;28;20182;-59
2024/03/31 02:41:44;;;;;;;35.80;30.43;;;11.70;99.90;;;;;;5013309;28;20239;-60
2024/03/31 02:44:09;;;;;;;34.60;30.97;;;11.70;99.90;;;;;;5012886;28;20183;-59
2024/03/31 02:46:35;;;;;;;31.93;28.53;;;11.60;99.90;;;;;;5013083;28;20175;-60
2024/03/31 02:49:01;;;;;;;34.70;27.40;;;11.60;99.90;;;;;;5013117;28;20200;-60
2024/03/31 02:51:26;;;;;;;32.70;27.40;;;11.60;99.90;;;;;;5011923;28;20193;-60
2024/03/31 02:53:52;;;;;;;31.67;28.27;;;11.60;99.90;;;;;;5013176;28;20184;-60
2024/03/31 02:56:18;;;;;;;30.07;26.70;;;11.60;99.90;;;;;;5011457;28;20227;-60
2024/03/31 02:58:43;;;;;;;29.13;25.90;;;11.60;99.90;;;;;;5012888;28;20690;-60
2024/03/31 03:01:09;;;;;;;32.03;26.73;;;11.70;99.90;;;;;;5012386;28;20194;-60
2024/03/31 03:03:35;;;;;;;30.27;27.00;;;11.70;99.90;;;;;;5012728;28;20278;-60
2024/03/31 03:06:01;;;;;;;34.80;28.80;;;11.70;99.90;;;;;;5012009;28;20185;-60
2024/03/31 03:08:27;;;;;;;31.10;27.80;;;11.70;99.90;;;;;;5010366;28;20278;-60
2024/03/31 03:10:54;;;;;;;29.40;26.40;;;11.80;99.90;;;;;;5012839;28;20426;-59
2024/03/31 03:13:20;;;;;;;30.50;27.20;;;11.80;99.90;;;;;;5011938;28;20210;-60
2024/03/31 03:15:46;;;;;;;29.50;25.57;;;11.80;99.90;;;;;;5012495;28;20420;-59
2024/03/31 03:18:16;;;;;;;31.40;26.20;;;11.80;99.90;;;;;;5011786;28;20421;-60
2024/03/31 03:20:41;;;;;;;31.80;25.33;;;11.90;99.90;;;;;;5012354;28;20188;-59
2024/03/31 03:23:07;;;;;;;33.73;25.73;;;11.90;99.90;;;;;;5012280;28;20828;-60
2024/03/31 03:25:34;;;;;;;29.50;25.13;;;12.00;99.90;;;;;;5011006;28;20570;-60
2024/03/31 03:28:00;;;;;;;28.77;24.57;;;11.90;99.90;;;;;;5012037;28;20508;-60
2024/03/31 03:30:25;;;;;;;27.50;24.53;;;12.00;99.90;;;;;;5011992;28;20474;-60
2024/03/31 03:32:52;;;;;;;26.70;24.07;;;12.00;99.90;;;;;;5012538;28;20420;-60
2024/03/31 03:35:18;;;;;;;28.17;24.83;;;12.00;99.90;;;;;;5011769;28;20188;-59
2024/03/31 03:37:45;;;;;;;28.13;25.13;;;12.00;99.90;;;;;;5012683;28;20470;-60
2024/03/31 03:40:11;;;;;;;30.27;25.30;;;12.00;99.90;;;;;;5011910;28;20503;-60
2024/03/31 03:42:37;;;;;;;28.60;25.53;;;12.00;99.90;;;;;;5012372;28;20416;-59
2024/03/31 03:45:04;;;;;;;32.87;27.00;;;12.00;99.90;;;;;;5012534;28;20463;-60
2024/03/31 03:47:30;;;;;;;33.63;28.97;;;11.90;99.90;;;;;;5011257;28;20459;-59
2024/03/31 03:49:56;;;;;;;30.13;26.83;;;11.90;99.90;;;;;;5012138;28;20425;-60
2024/03/31 03:52:21;;;;;;;32.37;26.60;;;11.90;99.90;;;;;;5011561;28;20633;-59
2024/03/31 03:54:48;;;;;;;32.60;29.10;;;11.90;99.90;;;;;;5012183;28;20175;-59
2024/03/31 03:57:13;;;;;;;31.80;27.13;;;11.90;99.90;;;;;;5010178;28;20545;-59
2024/03/31 03:59:39;;;;;;;30.20;25.83;;;11.90;99.90;;;;;;5010763;28;20182;-59
2024/03/31 04:02:05;;;;;;;33.97;26.73;;;11.90;99.90;;;;;;5012079;28;20229;-59
2024/03/31 04:04:31;;;;;;;33.27;27.93;;;11.90;99.90;;;;;;5010706;28;20648;-59
2024/03/31 04:06:56;;;;;;;30.87;27.53;;;11.90;99.90;;;;;;5012067;28;20236;-59
2024/03/31 04:09:22;;;;;;;29.87;26.80;;;11.90;99.90;;;;;;5011077;28;20216;-59
2024/03/31 04:11:48;;;;;;;29.23;26.23;;;11.90;99.90;;;;;;5012349;28;20426;-59
2024/03/31 04:14:14;;;;;;;31.17;26.23;;;12.00;99.90;;;;;;5011884;28;20415;-59
2024/03/31 04:16:40;;;;;;;30.93;27.70;;;11.90;99.90;;;;;;5011975;28;20710;-59
2024/03/31 04:19:05;;;;;;;28.13;24.97;;;12.00;99.90;;;;;;5012191;28;20260;-59
2024/03/31 04:21:31;;;;;;;30.40;25.90;;;12.00;99.90;;;;;;5011545;28;20399;-59
2024/03/31 04:23:57;;;;;;;31.43;26.03;;;12.00;99.90;;;;;;5011868;28;20634;-59
2024/03/31 04:26:25;;;;;;;31.50;25.87;;;12.00;99.90;;;;;;5008488;28;20182;-59
2024/03/31 04:28:52;;;;;;;28.57;25.77;;;12.00;99.90;;;;;;5012058;28;20460;-59
2024/03/31 04:31:18;;;;;;;35.53;27.17;;;12.00;99.90;;;;;;5014019;28;20898;-59
2024/03/31 04:33:44;;;;;;;29.97;27.07;;;12.00;99.90;;;;;;5015186;28;20797;-59
2024/03/31 04:36:11;;;;;;;28.20;25.17;;;12.00;99.90;;;;;;5015583;28;20417;-59
2024/03/31 04:38:36;;;;;;;31.00;26.00;;;12.00;99.90;;;;;;5014730;28;20659;-59
2024/03/31 04:41:02;;;;;;;28.97;25.07;;;12.00;99.90;;;;;;5015480;28;20458;-59
2024/03/31 04:43:28;;;;;;;31.87;26.43;;;12.00;99.90;;;;;;5014252;28;20188;-60
2024/03/31 04:46:07;;;;;;;28.60;25.60;;;12.00;99.90;;;;;;5015330;28;20501;-59
2024/03/31 04:48:33;;;;;;;30.73;27.63;;;12.00;99.90;;;;;;5013612;28;20200;-59
2024/03/31 04:51:08;;;;;;;21.90;19.10;;;12.10;99.90;;;;;;5015097;28;20429;-59
2024/03/31 04:53:37;;;;;;;23.33;19.60;;;12.00;99.90;;;;;;5013348;28;20570;-60
2024/03/31 04:56:04;;;;;;;20.50;18.47;;;12.00;99.90;;;;;;5014858;28;20917;-59
2024/03/31 04:58:30;;;;;;;20.30;18.07;;;12.00;99.90;;;;;;5012712;28;20473;-60
2024/03/31 05:00:56;;;;;;;24.40;21.90;;;12.00;99.90;;;;;;5014981;28;20904;-60
2024/03/31 05:03:25;;;;;;;22.47;20.17;;;12.10;99.90;;;;;;5013334;28;20469;-60
2024/03/31 05:05:51;;;;;;;22.53;20.20;;;12.00;99.90;;;;;;5013511;28;20420;-60
2024/03/31 05:08:17;;;;;;;22.90;19.90;;;12.10;99.90;;;;;;5013179;28;20974;-60
2024/03/31 05:10:59;;;;;;;20.77;18.63;;;12.10;99.90;;;;;;5014917;28;20413;-60
2024/03/31 05:13:29;;;;;;;23.27;20.40;;;12.10;99.90;;;;;;5013161;28;20409;-60
2024/03/31 05:15:58;;;;;;;22.20;19.90;;;12.20;99.90;;;;;;5009479;28;20487;-60
2024/03/31 05:18:24;;;;;;;23.43;20.70;;;12.20;99.90;;;;;;5007241;28;20429;-60
2024/03/31 05:21:08;;;;;;;22.77;19.63;;;12.20;99.90;;;;;;4995442;28;20408;-60
2024/03/31 05:23:37;;;;;;;23.20;20.47;;;12.30;99.90;;;;;;5009807;28;20201;-60
2024/03/31 05:26:03;;;;;;;21.77;19.57;;;12.30;99.90;;;;;;5014919;28;20828;-60
2024/03/31 05:28:29;;;;;;;24.37;21.97;;;12.30;99.90;;;;;;5012835;28;20793;-60
2024/03/31 05:30:55;;;;;;;26.53;22.23;;;12.30;99.90;;;;;;5014860;28;20413;-60
2024/03/31 05:33:21;;;;;;;23.77;20.50;;;12.30;99.90;;;;;;5014478;28;20590;-60
2024/03/31 05:35:47;;;;;;;26.30;21.83;;;12.30;99.90;;;;;;5014820;28;20474;-60
2024/03/31 05:38:15;;;;;;;24.53;21.73;;;12.30;99.90;;;;;;5013966;28;20420;-59
2024/03/31 05:40:43;;;;;;;24.57;22.17;;;12.30;99.90;;;;;;5013583;28;20417;-60
2024/03/31 05:43:09;;;;;;;23.80;21.33;;;12.30;99.90;;;;;;5014373;28;20413;-59
2024/03/31 05:45:37;;;;;;;23.30;20.87;;;12.30;99.90;;;;;;5020540;28;20439;-60
2024/03/31 05:48:05;;;;;;;23.47;21.07;;;12.40;99.90;;;;;;5013660;28;20515;-60
2024/03/31 05:50:30;;;;;;;23.37;20.97;;;12.40;99.90;;;;;;4999630;28;20437;-60
2024/03/31 05:52:56;;;;;;;22.50;20.40;;;12.40;99.90;;;;;;5013392;28;20434;-59
2024/03/31 05:55:22;;;;;;;23.07;20.30;;;12.40;99.90;;;;;;5013807;28;20236;-60
2024/03/31 05:57:47;;;;;;;22.73;18.97;;;12.40;99.90;;;;;;5014339;28;20264;-60
2024/03/31 06:00:13;;;;;;;22.43;19.53;;;12.40;99.90;;;;;;5014336;28;20170;-60
2024/03/31 06:02:39;;;;;;;21.83;19.50;;;12.50;99.90;;;;;;5013237;28;20310;-60
2024/03/31 06:05:06;;;;;;;23.73;19.33;;;12.50;99.90;;;;;;5013424;28;20638;-60
2024/03/31 06:07:32;;;;;;;20.20;18.30;;;12.50;99.90;;;;;;5012504;28;20202;-60
2024/03/31 06:09:58;;;;;;;21.30;19.00;;;12.60;99.90;;;;;;5014120;28;20422;-60
2024/03/31 06:12:25;;;;;;;21.87;19.57;;;12.50;99.90;;;;;;5013431;28;20405;-60
2024/03/31 06:14:51;;;;;;;23.07;18.80;;;12.60;99.90;;;;;;5014032;28;20409;-60
2024/03/31 06:17:20;;;;;;;21.37;18.70;;;12.60;99.90;;;;;;5014024;28;20508;-60
2024/03/31 06:19:46;;;;;;;20.33;18.23;;;12.70;99.90;;;;;;5012441;28;20943;-60
2024/03/31 06:22:12;;;;;;;19.90;17.97;;;12.70;99.90;;;;;;5013881;28;20417;-60
2024/03/31 06:24:37;;;;;;;19.37;17.37;;;12.70;99.90;;;;;;5013272;28;20413;-60
2024/03/31 06:27:04;;;;;;;20.30;18.30;;;12.70;99.90;;;;;;5012619;28;20175;-60
2024/03/31 06:29:29;;;;;;;21.37;19.17;;;12.70;99.90;;;;;;5012987;28;20641;-60
2024/03/31 06:31:55;;;;;;;23.13;20.10;;;12.70;99.90;;;;;;5013651;28;20446;-60
2024/03/31 06:34:21;;;;;;;21.67;19.57;;;12.80;99.90;;;;;;5011238;28;20232;-60
2024/03/31 06:36:47;;;;;;;23.60;21.17;;;12.80;99.90;;;;;;5000114;28;20195;-59
2024/03/31 06:39:12;;;;;;;24.17;21.67;;;12.80;99.90;;;;;;5000392;28;20248;-59
2024/03/31 06:41:38;;;;;;;27.00;20.80;;;12.90;99.90;;;;;;5011382;28;20472;-59
2024/03/31 06:44:04;;;;;;;23.93;20.50;;;12.90;99.90;;;;;;5013310;28;20890;-59
2024/03/31 06:46:30;;;;;;;22.97;17.93;;;12.90;99.90;;;;;;5012851;28;20684;-59
2024/03/31 06:48:56;;;;;;;19.77;17.77;;;12.90;99.90;;;;;;5000369;28;20457;-59
2024/03/31 06:51:23;;;;;;;17.87;16.13;;;12.90;99.90;;;;;;4993201;28;20213;-59
2024/03/31 06:53:50;;;;;;;17.47;15.70;;;12.90;99.90;;;;;;5000615;28;20182;-59
2024/03/31 06:56:17;;;;;;;19.60;15.67;;;12.50;99.90;;;;;;5013372;28;20499;-59
2024/03/31 06:58:43;;;;;;;19.23;15.63;;;12.20;99.90;;;;;;5012627;28;20425;-59
2024/03/31 07:01:08;;;;;;;17.67;16.07;;;12.20;99.90;;;;;;5012916;28;20419;-59
2024/03/31 07:03:34;;;;;;;18.17;16.33;;;12.40;99.90;;;;;;5012561;28;20584;-59
2024/03/31 07:06:00;;;;;;;15.77;14.17;;;12.50;99.90;;;;;;5012825;28;20174;-59
2024/03/31 07:08:25;;;;;;;15.43;13.90;;;12.60;99.90;;;;;;5010740;28;20206;-59
2024/03/31 07:10:51;;;;;;;20.03;14.10;;;12.60;99.90;;;;;;5012437;28;20340;-59
2024/03/31 07:13:17;;;;;;;16.83;15.23;;;12.70;99.90;;;;;;5009302;28;20237;-59
2024/03/31 07:15:43;;;;;;;18.17;15.60;;;12.80;99.90;;;;;;5012112;28;20180;-59
2024/03/31 07:18:09;;;;;;;19.20;16.93;;;12.90;99.90;;;;;;5013106;28;20186;-59
2024/03/31 07:20:36;;;;;;;20.33;18.30;;;12.90;99.90;;;;;;5012338;28;20179;-59
2024/03/31 07:23:03;;;;;;;18.77;16.90;;;13.00;99.90;;;;;;5012853;28;20474;-59
2024/03/31 07:25:30;;;;;;;21.40;17.60;;;13.10;99.90;;;;;;5012299;28;20408;-59
2024/03/31 07:27:56;;;;;;;19.57;17.73;;;13.20;99.90;;;;;;5012436;28;20953;-60
2024/03/31 07:30:21;;;;;;;19.17;17.33;;;13.30;99.90;;;;;;5001689;28;20414;-59
2024/03/31 07:32:47;;;;;;;18.33;16.43;;;13.40;99.90;;;;;;5012331;28;20637;-60
2024/03/31 07:35:13;;;;;;;15.73;14.20;;;13.50;99.90;;;;;;5012448;28;20179;-59
2024/03/31 07:37:39;;;;;;;17.17;15.37;;;13.60;99.90;;;;;;5012168;28;20173;-59
2024/03/31 07:40:05;;;;;;;17.57;15.87;;;13.70;99.90;;;;;;5012365;28;20534;-59
2024/03/31 07:42:31;;;;;;;17.07;15.40;;;13.80;99.90;;;;;;5012071;28;20176;-59
2024/03/31 07:44:56;;;;;;;15.27;13.87;;;13.90;99.90;;;;;;4997367;28;20439;-59
2024/03/31 07:47:22;;;;;;;14.57;13.17;;;14.00;99.90;;;;;;4993151;28;20180;-60
2024/03/31 07:49:48;;;;;;;11.83;10.63;;;14.00;99.90;;;;;;4992502;28;20241;-59
2024/03/31 07:52:13;;;;;;;10.30;9.30;;;14.10;99.90;;;;;;4993084;28;20594;-59
2024/03/31 07:54:39;;;;;;;8.83;8.23;;;14.20;99.90;;;;;;5006785;28;20261;-59
2024/03/31 07:57:05;;;;;;;9.27;8.57;;;14.20;99.90;;;;;;5012675;28;20170;-59
2024/03/31 07:59:31;;;;;;;8.50;7.70;;;14.20;99.90;;;;;;5011554;28;20174;-59
2024/03/31 08:01:57;;;;;;;7.30;6.70;;;14.20;99.90;;;;;;5011899;28;20222;-60
2024/03/31 08:04:23;;;;;;;7.67;6.97;;;14.40;99.90;;;;;;5012696;28;20421;-60
2024/03/31 08:06:48;;;;;;;6.90;6.40;;;14.50;99.90;;;;;;5014613;28;20933;-61
2024/03/31 08:09:14;;;;;;;7.50;6.20;;;14.60;99.90;;;;;;5015240;28;20285;-60
2024/03/31 08:11:40;;;;;;;7.53;6.63;;;14.70;99.90;;;;;;5015192;28;20225;-59
2024/03/31 08:14:06;;;;;;;6.67;6.27;;;14.80;99.90;;;;;;5015117;28;20192;-59
2024/03/31 08:16:31;;;;;;;8.93;6.17;;;14.90;99.90;;;;;;5017524;28;20652;-60
2024/03/31 08:18:59;;;;;;;6.90;5.27;;;14.90;99.90;;;;;;5015584;28;20214;-59
2024/03/31 08:21:24;;;;;;;5.97;5.37;;;15.00;99.90;;;;;;5016364;28;20182;-59
2024/03/31 08:23:51;;;;;;;5.43;4.40;;;15.20;99.90;;;;;;5015521;28;20459;-59
2024/03/31 08:26:16;;;;;;;4.47;4.07;;;15.30;99.90;;;;;;5015999;28;20183;-59
2024/03/31 08:28:42;;;;;;;4.37;4.00;;;15.40;99.90;;;;;;5015002;28;20451;-59
2024/03/31 08:31:08;;;;;;;3.80;3.40;;;15.30;99.90;;;;;;5014679;28;20589;-59
2024/03/31 08:33:33;;;;;;;7.70;3.90;;;15.40;99.90;;;;;;5015403;28;20179;-59
2024/03/31 08:35:59;;;;;;;5.53;3.33;;;15.40;99.90;;;;;;5014322;28;20270;-59
2024/03/31 08:38:25;;;;;;;7.57;3.27;;;15.40;99.90;;;;;;5015421;28;20241;-60
2024/03/31 08:40:59;;;;;;;8.40;3.67;;;15.30;99.90;;;;;;5013606;28;20619;-66
2024/03/31 08:43:27;;;;;;;5.70;4.07;;;15.40;99.90;;;;;;5014607;28;20175;-67
2024/03/31 08:45:54;;;;;;;7.53;5.23;;;15.70;99.90;;;;;;5015701;28;20409;-64
2024/03/31 08:48:20;;;;;;;8.20;7.30;;;16.00;99.90;;;;;;5014232;28;20476;-65
2024/03/31 08:50:49;;;;;;;8.23;5.37;;;16.50;99.90;;;;;;5014010;28;20928;-65
2024/03/31 08:53:19;;;;;;;6.40;5.13;;;16.80;99.90;;;;;;5014855;28;20421;-65
2024/03/31 08:55:44;;;;;;;3.90;3.07;;;17.10;99.90;;;;;;5014494;28;20414;-65
2024/03/31 08:58:10;;;;;;;4.73;3.50;;;17.30;99.90;;;;;;5014919;28;20406;-65
2024/03/31 09:00:42;;;;;;;5.47;3.60;;;17.50;99.90;;;;;;5014350;28;20179;-65
2024/03/31 09:03:08;;;;;;;4.87;3.80;;;17.40;99.90;;;;;;5015333;28;20215;-65
2024/03/31 09:05:36;;;;;;;6.53;4.20;;;17.50;99.90;;;;;;5013195;28;20430;-65
2024/03/31 09:08:02;;;;;;;4.90;3.40;;;17.70;99.90;;;;;;5008524;28;20461;-65
2024/03/31 09:10:29;;;;;;;4.60;3.70;;;17.70;99.90;;;;;;5005049;28;20434;-65
2024/03/31 09:12:54;;;;;;;4.20;3.30;;;17.80;99.90;;;;;;5011301;28;20812;-65
2024/03/31 09:15:20;;;;;;;4.47;3.40;;;17.80;99.90;;;;;;5012026;28;20394;-65
2024/03/31 09:17:46;;;;;;;8.27;4.67;;;17.80;99.90;;;;;;5012840;28;20183;-65
2024/03/31 09:20:13;;;;;;;8.80;5.93;;;18.00;99.90;;;;;;5013298;28;20221;-65
2024/03/31 09:22:40;;;;;;;8.10;5.43;;;18.20;99.90;;;;;;5008257;28;20426;-65
2024/03/31 09:25:08;;;;;;;11.53;5.20;;;18.40;99.90;;;;;;5007693;28;20461;-65
2024/03/31 09:27:34;;;;;;;6.20;4.10;;;18.60;99.90;;;;;;5012422;28;20869;-65
2024/03/31 09:30:01;;;;;;;10.10;5.53;;;18.60;99.90;;;;;;5013679;28;20799;-65
2024/03/31 09:32:27;;;;;;;6.87;4.30;;;18.80;99.90;;;;;;5011574;28;20926;-65
2024/03/31 09:34:54;;;;;;;5.93;3.80;;;19.00;99.90;;;;;;5005288;28;20448;-65
2024/03/31 09:37:21;;;;;;;9.00;3.47;;;19.10;98.60;;;;;;5011360;28;20909;-65
2024/03/31 09:39:47;;;;;;;5.90;3.30;;;19.30;98.60;;;;;;5010856;28;20827;-65
2024/03/31 09:42:12;;;;;;;8.10;4.80;;;19.40;98.60;;;;;;5008140;28;20425;-65
2024/03/31 09:44:43;;;;;;;9.40;5.83;;;19.60;98.10;;;;;;5008825;28;20634;-65
2024/03/31 09:47:22;;;;;;;9.97;4.70;;;19.80;98.10;;;;;;5013654;28;20167;-65
2024/03/31 09:50:08;;;;;;;5.87;4.10;;;20.00;96.40;;;;;;5009900;28;20434;-62
2024/03/31 09:52:34;;;;;;;6.33;3.50;;;20.20;96.10;;;;;;5012234;28;20485;-62
2024/03/31 09:55:10;;;;;;;3.40;3.10;;;20.30;93.80;;;;;;5014376;28;20405;-62
2024/03/31 09:57:47;;;;;;;6.13;3.10;;;20.00;92.10;;;;;;5013433;28;20429;-61
2024/03/31 10:00:14;;;;;;;5.90;3.77;;;20.10;91.20;;;;;;5013239;28;20433;-61
2024/03/31 10:02:51;;;;;;;5.37;3.93;;;20.20;91.10;;;;;;5012437;28;20454;-61
2024/03/31 10:05:34;;;;;;;5.23;3.60;;;20.40;90.50;;;;;;5013574;28;20766;-61
2024/03/31 10:08:01;;;;;;;131.77;96.93;;;20.70;91.70;;;;;;5012149;28;20530;-61
2024/03/31 10:10:29;;;;;;;53.53;33.83;;;20.90;89.30;;;;;;5013013;28;20433;-62
2024/03/31 10:12:57;;;;;;;16.20;12.57;;;21.20;81.80;;;;;;5011988;28;20423;-61
2024/03/31 10:15:24;;;;;;;4.53;3.43;;;21.40;80.40;;;;;;5012414;28;20938;-61
2024/03/31 10:17:51;;;;;;;4.63;3.40;;;21.40;77.90;;;;;;5011908;28;20407;-61
2024/03/31 10:20:21;;;;;;;4.30;3.60;;;21.70;79.10;;;;;;5013069;28;20501;-61
2024/03/31 10:22:47;;;;;;;4.07;3.20;;;21.80;74.20;;;;;;5006109;28;20422;-61
2024/03/31 10:25:13;;;;;;;5.80;3.67;;;21.80;75.40;;;;;;5009863;28;20504;-62
2024/03/31 10:27:42;;;;;;;8.23;3.93;;;21.90;74.40;;;;;;5008483;28;20457;-61
2024/03/31 10:30:09;;;;;;;7.13;3.77;;;22.00;75.00;;;;;;5011671;28;20429;-61
2024/03/31 10:32:36;;;;;;;4.30;3.23;;;22.20;78.60;;;;;;5012576;28;20988;-61
2024/03/31 10:35:05;;;;;;;6.47;3.00;;;22.30;75.20;;;;;;5013345;28;20448;-61
2024/03/31 10:37:32;;;;;;;4.90;3.30;;;22.30;73.90;;;;;;5013013;28;20406;-62
2024/03/31 10:39:59;;;;;;;4.20;3.30;;;22.40;75.00;;;;;;5013006;28;20418;-61
2024/03/31 10:42:25;;;;;;;5.90;4.00;;;22.70;74.80;;;;;;5013295;28;20406;-61
2024/03/31 10:44:55;;;;;;;5.27;4.03;;;23.00;74.30;;;;;;5011684;28;20496;-61
2024/03/31 10:47:21;;;;;;;4.23;3.87;;;23.30;72.10;;;;;;5011115;28;20433;-62
2024/03/31 10:49:56;;;;;;;4.97;3.83;;;23.60;71.40;;;;;;5012449;28;20414;-62
2024/03/31 10:52:24;;;;;;;9.97;3.60;;;23.70;69.80;;;;;;5012748;28;20397;-62
2024/03/31 10:54:51;;;;;;;4.93;3.10;;;23.80;69.20;;;;;;5012508;28;20421;-62
2024/03/31 10:57:17;;;;;;;6.97;3.57;;;23.80;66.30;;;;;;5012194;28;20747;-62
2024/03/31 10:59:46;;;;;;;315.00;210.73;;;23.50;67.10;;;;;;5012405;28;20840;-62
2024/03/31 11:02:18;;;;;;;49.40;40.60;;;23.40;64.90;;;;;;5013033;28;20222;-62
2024/03/31 11:05:05;;;;;;;5.50;4.33;;;23.30;66.60;;;;;;5012409;28;20505;-62
2024/03/31 11:07:34;;;;;;;4.50;3.43;;;22.90;64.00;;;;;;5011934;28;20414;-63
2024/03/31 11:10:05;;;;;;;6.47;3.40;;;22.60;65.10;;;;;;5012867;28;20426;-62
2024/03/31 11:12:31;;;;;;;6.40;3.40;;;22.50;67.10;;;;;;5012440;28;20493;-61
2024/03/31 11:14:57;;;;;;;4.50;3.50;;;22.50;69.30;;;;;;5010892;28;20433;-62
2024/03/31 11:17:26;;;;;;;7.40;4.60;;;22.40;67.90;;;;;;5012811;28;20406;-62
2024/03/31 11:19:53;;;;;;;11.57;6.17;;;22.50;70.90;;;;;;5010775;28;20274;-62
2024/03/31 11:22:21;;;;;;;8.00;5.53;;;22.80;74.30;;;;;;5011513;28;20426;-62
2024/03/31 11:24:47;;;;;;;4.60;3.47;;;22.90;74.50;;;;;;5010943;28;20426;-62
2024/03/31 11:27:13;;;;;;;6.70;3.70;;;23.00;69.00;;;;;;5001554;28;20903;-62
2024/03/31 11:29:41;;;;;;;7.23;4.50;;;23.10;68.00;;;;;;5005765;28;20473;-62
2024/03/31 11:32:07;;;;;;;6.90;6.07;;;23.20;70.60;;;;;;5012312;28;20921;-62
2024/03/31 11:34:34;;;;;;;6.33;5.53;;;23.40;71.30;;;;;;5011800;28;20489;-62
2024/03/31 11:37:03;;;;;;;8.00;5.50;;;23.30;68.50;;;;;;5009476;28;20980;-62
2024/03/31 11:39:33;;;;;;;5.83;5.43;;;23.20;68.20;;;;;;5014503;28;20409;-62
2024/03/31 11:41:59;;;;;;;7.03;5.70;;;23.10;67.80;;;;;;5016500;28;20417;-62
2024/03/31 11:44:26;;;;;;;5.47;4.60;;;23.00;69.90;;;;;;5011879;28;20857;-62
2024/03/31 11:46:52;;;;;;;6.70;3.50;;;23.20;70.10;;;;;;5010388;28;20429;-62
2024/03/31 11:49:18;;;;;;;5.93;3.90;;;23.30;69.70;;;;;;5013545;28;20465;-62
2024/03/31 11:51:43;;;;;;;6.03;4.00;;;23.20;68.10;;;;;;5002809;28;20440;-62
2024/03/31 11:54:09;;;;;;;5.70;4.30;;;23.20;70.40;;;;;;5013133;28;20626;-62
2024/03/31 11:56:37;;;;;;;4.03;3.10;;;22.60;66.50;;;;;;5011976;28;20418;-62
2024/03/31 11:59:16;;;;;;;23.77;18.60;;;22.50;66.00;;;;;;5010575;28;20182;-62
2024/03/31 12:01:42;;;;;;;38.30;29.38;;;22.40;63.60;;;;;;5007703;28;20973;-62
2024/03/31 12:04:14;;;;;;;5.20;3.90;;;22.30;62.70;;;;;;5005492;28;20175;-62
2024/03/31 12:06:40;;;;;;;4.80;3.33;;;22.10;59.80;;;;;;5015172;28;20557;-62
2024/03/31 12:09:06;;;;;;;3.47;3.23;;;21.90;60.10;;;;;;5007377;28;20520;-62
2024/03/31 12:11:32;;;;;;;4.07;3.53;;;21.80;60.50;;;;;;5014548;28;20414;-62
2024/03/31 12:13:59;;;;;;;5.37;3.13;;;21.60;61.30;;;;;;5012518;28;20187;-62
2024/03/31 12:16:24;;;;;;;5.90;3.27;;;21.50;61.60;;;;;;5008077;28;20422;-62
2024/03/31 12:18:51;;;;;;;7.40;3.93;;;21.10;62.20;;;;;;5012041;28;20429;-61
2024/03/31 12:21:24;;;;;;;3.30;3.00;;;21.00;64.30;;;;;;5013359;28;20433;-62
2024/03/31 12:23:52;;;;;;;3.37;3.00;;;21.00;64.60;;;;;;5009582;28;20430;-67
2024/03/31 12:26:20;;;;;;;5.40;3.10;;;20.80;64.90;;;;;;5014572;28;20785;-62
2024/03/31 12:28:45;;;;;;;3.53;3.10;;;20.70;67.00;;;;;;5010547;28;20808;-62
2024/03/31 12:31:16;;;;;;;3.90;3.10;;;20.70;67.70;;;;;;5011454;28;20521;-62